Latest Weather Observations for Adelaide Airport

IDS60801

Issued at 6:01 pm CST Saturday 30 May 2015 (issued every 30 minutes, with the page automatically refreshed every 10 minutes)

About weather observations | Map of weather stations | Latest weather observations for SA | Other Formats
Station Details ID: 023034 Name: ADELAIDE AIRPORT Lat: -34.95 Lon: 138.52 Height: 2.0 m
Data from the previous 72 hours. | See also: Recent months at Adelaide Airport
Date/Time
CST
Temp
°C
App
Temp
°C
Dew
Point
Rel
Hum
%
Delta-T
°C
Wind Press
QNH
hPa
Press
MSL
hPa
Rain
since 9 am
mm
Dir
 
Spd
km/h
Gust
km/h
Spd
kts
Gust
kts
30/05:30pm 13.7 11.7 11.6 87 1.1 NW 13 15 7 8 1020.5 1020.5 0.8
30/05:00pm 13.2 11.6 11.5 89 0.9 NNW 11 17 6 9 1020.5 1020.5 0.8
30/04:30pm 13.2 11.3 11.9 92 0.7 NNW 13 17 7 9 1020.5 1020.5 0.8
30/04:00pm 13.1 9.8 11.6 91 0.8 NW 20 26 11 14 1020.5 1020.5 0.8
30/03:30pm 12.9 10.3 12.0 94 0.5 WNW 17 20 9 11 1020.5 1020.5 0.8
30/03:17pm 13.2 11.4 12.1 93 0.6 WNW 13 19 7 10 1020.6 1020.6 0.4
30/03:00pm 13.1 11.4 12.4 95 0.4 NNW 13 15 7 8 1020.7 1020.7 0.2
30/02:51pm 13.0 10.8 12.1 94 0.5 NW 15 20 8 11 1020.7 1020.7 0.2
30/02:34pm 13.1 10.8 11.8 92 0.7 WNW 15 20 8 11 1020.9 1020.9 0.0
30/02:30pm 13.2 10.9 11.9 92 0.7 WNW 15 20 8 11 1020.8 1020.8 0.0
30/02:18pm 13.3 9.7 11.8 91 0.8 NW 22 32 12 17 1020.8 1020.8 0.0
30/02:10pm 13.5 10.1 11.2 86 1.2 NW 20 32 11 17 1020.8 1020.8 0.0
30/02:00pm 14.5 10.9 10.7 78 2.0 NNW 20 26 11 14 1020.7 1020.7 0.0
30/01:30pm 14.9 10.9 10.5 75 2.3 NW 22 30 12 16 1020.9 1020.9 0.0
30/01:00pm 15.4 11.0 10.4 72 2.6 NW 24 33 13 18 1021.3 1021.3 0.0
30/12:30pm 15.1 10.8 10.7 75 2.3 NW 24 30 13 16 1021.5 1021.5 0.0
30/12:00pm 14.3 11.0 10.9 80 1.8 NW 19 30 10 16 1022.0 1022.0 0.0
30/11:30am 13.3 8.3 11.0 86 1.2 WNW 28 35 15 19 1022.7 1022.7 0.0
30/11:00am 14.8 10.5 10.8 77 2.1 NNW 24 30 13 16 1023.1 1023.1 0.0
30/10:30am 14.3 11.1 11.1 81 1.7 NNW 19 26 10 14 1023.4 1023.4 0.0
30/09:30am 12.6 9.4 8.6 76 2.0 N 15 19 8 10 1023.8 1023.8 0.0
30/09:00am 11.8 8.6 8.3 79 1.7 NNE 15 20 8 11 1023.9 1023.9 0.8
30/08:30am 10.8 7.5 8.1 83 1.3 NNE 15 20 8 11 1023.8 1023.8 0.8
30/08:00am 9.8 7.7 8.1 89 0.8 NE 9 13 5 7 1023.8 1023.8 0.8
30/07:30am 9.4 7.2 7.9 90 0.7 NE 9 13 5 7 1023.5 1023.5 0.8
30/07:00am 9.4 7.3 8.1 92 0.6 NE 9 11 5 6 1023.4 1023.4 0.8
30/06:30am 9.9 7.5 8.5 91 0.7 NE 11 15 6 8 1023.4 1023.4 0.8
30/05:30am 9.7 7.3 8.7 93 0.5 NE 11 13 6 7 1023.2 1023.2 0.8
30/05:00am 9.7 7.7 8.7 93 0.5 NE 9 11 5 6 1023.3 1023.3 0.8
30/04:30am 8.7 6.6 8.1 96 0.3 NE 9 11 5 6 1023.1 1023.1 0.8
30/04:00am 9.1 7.0 8.1 93 0.5 NE 9 11 5 6 1023.1 1023.1 0.8
30/03:30am 9.2 6.7 8.2 93 0.5 NE 11 13 6 7 1023.3 1023.3 0.8
30/03:00am 8.9 6.4 8.3 96 0.3 NNE 11 15 6 8 1023.4 1023.4 0.8
30/02:30am 9.3 6.5 8.5 95 0.4 NE 13 15 7 8 1023.3 1023.3 0.8
30/02:00am 9.5 6.7 8.5 93 0.5 NE 13 15 7 8 1023.3 1023.3 0.8
30/01:30am 9.9 8.0 9.1 95 0.4 NE 9 11 5 6 1023.4 1023.4 0.8
30/01:00am 9.9 8.4 9.3 96 0.3 NE 7 9 4 5 1023.5 1023.5 0.8
30/12:30am 9.3 7.7 8.9 97 0.2 NE 7 7 4 4 1023.7 1023.7 0.8
 
Date/Time
CST
Temp
°C
App
Temp
°C
Dew
Point
Rel
Hum
%
Delta-T
°C
Wind Press
QNH
hPa
Press
MSL
hPa
Rain
since 9 am
mm
Dir
 
Spd
km/h
Gust
km/h
Spd
kts
Gust
kts
29/11:30pm 9.8 8.5 9.2 96 0.3 NE 6 7 3 4 1024.1 1024.1 0.8
29/11:00pm 10.0 8.1 9.2 95 0.4 NE 9 9 5 5 1024.3 1024.3 0.8
29/10:30pm 11.0 9.3 10.0 93 0.5 NE 9 11 5 6 1024.5 1024.5 0.8
29/10:00pm 11.9 12.1 10.5 91 0.7 CALM 0 0 0 0 1024.6 1024.6 0.8
29/09:30pm 12.5 10.2 10.4 87 1.1 SW 13 15 7 8 1024.5 1024.5 0.8
29/09:00pm 12.5 11.3 10.4 87 1.1 WNW 7 9 4 5 1024.6 1024.6 0.8
29/08:30pm 12.6 10.8 9.4 81 1.6 WNW 9 9 5 5 1024.6 1024.6 0.8
29/08:00pm 12.5 11.0 10.4 87 1.1 WSW 9 13 5 7 1024.4 1024.4 0.8
29/07:30pm 12.6 10.4 10.7 88 1.0 W 13 19 7 10 1024.2 1024.2 0.8
29/07:00pm 13.0 13.3 10.9 87 1.1 CALM 0 0 0 0 1024.0 1024.0 0.4
29/06:30pm 12.9 13.2 10.8 87 1.1 CALM 0 0 0 0 1023.9 1023.9 0.4
29/05:30pm 12.7 11.7 11.0 89 0.9 S 7 9 4 5 1023.8 1023.8 0.4
29/05:00pm 12.9 10.4 11.0 88 1.0 WSW 15 26 8 14 1023.7 1023.7 0.4
29/04:30pm 14.3 12.9 9.4 72 2.5 WSW 7 11 4 6 1023.5 1023.5 0.2
29/04:00pm 14.5 12.2 9.0 69 2.8 WSW 11 13 6 7 1023.5 1023.5 0.2
29/03:30pm 14.6 12.3 8.9 68 2.9 WSW 11 17 6 9 1023.3 1023.3 0.2
29/03:00pm 15.5 13.5 8.8 64 3.4 WNW 9 13 5 7 1023.3 1023.3 0.2
29/02:30pm 15.3 12.6 9.0 66 3.2 WSW 13 15 7 8 1023.5 1023.5 0.2
29/02:00pm 15.2 12.7 8.0 62 3.6 W 11 19 6 10 1023.6 1023.6 0.2
29/01:30pm 15.1 13.6 9.2 68 3.0 S 7 11 4 6 1023.6 1023.6 0.2
29/01:00pm 14.2 11.7 11.2 82 1.6 SW 15 24 8 13 1023.9 1023.9 0.2
29/12:30pm 15.1 12.7 8.5 64 3.3 W 11 15 6 8 1023.9 1023.9 0.2
29/12:00pm 15.0 12.3 8.9 67 3.1 W 13 15 7 8 1024.2 1024.2 0.2
29/11:30am 15.4 13.5 8.9 65 3.3 WNW 9 15 5 8 1024.3 1024.3 0.2
29/11:00am 15.3 14.4 9.2 67 3.1 SE 4 9 2 5 1024.3 1024.3 0.2
29/10:30am 15.6 14.3 10.0 69 2.9 E 7 11 4 6 1024.6 1024.6 0.2
29/10:00am 15.3 14.6 10.1 71 2.7 SE 4 6 2 3 1024.7 1024.7 0.2
29/09:30am 12.9 11.6 10.0 82 1.5 S 7 13 4 7 1024.6 1024.6 0.2
29/09:00am 13.9 12.6 10.0 77 2.0 NNE 7 9 4 5 1024.1 1024.1 0.8
29/08:30am 13.4 12.0 9.7 78 1.9 ENE 7 9 4 5 1023.9 1023.9 0.8
29/08:00am 11.5 10.2 9.3 86 1.1 ENE 6 7 3 4 1023.9 1023.9 0.8
29/07:30am 11.3 9.8 9.1 86 1.1 NE 7 9 4 5 1023.6 1023.6 0.8
29/07:00am 11.7 10.1 8.7 82 1.5 NE 7 9 4 5 1023.3 1023.3 0.8
29/06:30am 11.3 9.6 8.4 82 1.4 ESE 7 9 4 5 1023.1 1023.1 0.8
29/06:00am 11.4 11.0 8.1 80 1.6 CALM 0 0 0 0 1022.7 1022.7 0.8
29/05:30am 13.0 12.6 8.4 73 2.3 CALM 0 0 0 0 1022.7 1022.7 0.8
29/05:00am 12.4 10.9 9.0 80 1.7 SE 7 7 4 4 1022.6 1022.6 0.8
29/04:30am 12.5 10.6 9.1 80 1.7 SSE 9 13 5 7 1022.4 1022.4 0.8
29/04:00am 14.1 11.1 7.6 65 3.2 WSW 13 17 7 9 1022.1 1022.1 0.8
29/03:30am 13.7 12.0 7.6 66 3.0 NNW 6 11 3 6 1022.1 1022.1 0.8
29/03:00am 12.9 10.9 8.7 75 2.1 SW 9 11 5 6 1021.7 1021.7 0.8
29/02:30am 13.4 10.6 8.4 72 2.5 SW 13 15 7 8 1021.8 1021.8 0.8
29/02:00am 13.6 11.6 8.8 73 2.4 SW 9 11 5 6 1022.0 1022.0 0.8
29/01:30am 13.6 10.9 9.0 74 2.3 SSW 13 17 7 9 1021.7 1021.7 0.8
29/01:00am 13.9 11.3 9.4 74 2.3 SW 13 19 7 10 1022.0 1022.0 0.8
29/12:30am 14.1 11.5 9.4 73 2.4 SW 13 17 7 9 1021.7 1021.7 0.8
29/12:00am 13.9 11.0 9.6 75 2.2 SW 15 20 8 11 1021.4 1021.4 0.8
 
Date/Time
CST
Temp
°C
App
Temp
°C
Dew
Point
Rel
Hum
%
Delta-T
°C
Wind Press
QNH
hPa
Press
MSL
hPa
Rain
since 9 am
mm
Dir
 
Spd
km/h
Gust
km/h
Spd
kts
Gust
kts
28/11:30pm 14.5 11.1 10.5 77 2.1 WSW 19 24 10 13 1021.5 1021.5 0.8
28/11:00pm 14.6 11.0 10.0 74 2.4 WSW 19 26 10 14 1021.7 1021.7 0.8
28/10:30pm 14.6 10.1 10.0 74 2.4 WSW 24 33 13 18 1021.5 1021.5 0.8
28/10:00pm 14.8 11.2 10.0 73 2.5 WSW 19 26 10 14 1021.5 1021.5 0.8
28/09:30pm 14.7 12.1 10.7 77 2.1 W 15 19 8 10 1021.1 1021.1 0.8
28/09:00pm 14.5 11.4 11.7 83 1.5 WSW 19 26 10 14 1020.8 1020.8 0.8
28/08:30pm 14.6 11.8 11.4 81 1.7 WSW 17 22 9 12 1020.6 1020.6 0.8
28/08:00pm 14.5 11.9 12.1 85 1.3 W 17 24 9 13 1020.4 1020.4 0.8
28/07:30pm 14.6 12.1 12.2 85 1.3 W 17 20 9 11 1020.2 1020.2 0.8
28/07:00pm 14.0 12.3 12.5 91 0.8 WNW 13 17 7 9 1019.9 1019.9 0.8
28/06:30pm 13.9 12.7 12.8 93 0.6 WNW 11 15 6 8 1019.6 1019.6 0.8
28/06:00pm 13.7 10.7 12.6 93 0.6 WSW 20 26 11 14 1019.6 1019.6 0.8
28/05:46pm 13.7 9.9 12.4 92 0.7 WSW 24 32 13 17 1019.5 1019.5 0.6
28/05:30pm 14.3 12.0 11.7 84 1.4 W 15 19 8 10 1019.2 1019.2 0.6
28/05:00pm 13.9 9.2 12.0 88 1.0 W 28 39 15 21 1019.0 1019.0 0.4
28/04:43pm 14.1 9.2 12.6 91 0.8 WSW 30 37 16 20 1018.8 1018.8 0.4
28/04:30pm 14.8 10.8 11.8 82 1.6 WSW 24 35 13 19 1018.6 1018.6 0.0
28/04:00pm 16.8 13.4 12.4 75 2.4 WNW 22 30 12 16 1018.0 1018.0 0.0
28/03:30pm 17.0 13.5 12.3 74 2.6 WNW 22 28 12 15 1017.9 1017.9 0.0
28/03:00pm 17.8 14.4 12.4 70 3.0 WNW 22 30 12 16 1017.9 1017.9 0.0
28/02:30pm 17.9 14.9 12.7 71 2.9 WNW 20 26 11 14 1017.7 1017.7 0.0
28/02:00pm 17.8 14.4 12.4 70 3.0 WNW 22 32 12 17 1017.6 1017.6 0.0
28/01:30pm 17.5 13.6 12.2 71 2.9 NW 24 30 13 16 1018.0 1018.0 0.0
28/01:00pm 17.1 13.4 12.6 75 2.5 NW 24 33 13 18 1018.2 1018.2 0.0
28/12:30pm 17.6 14.0 13.1 75 2.5 NW 24 32 13 17 1018.3 1018.3 0.0
28/12:00pm 16.5 13.0 12.3 76 2.3 NNW 22 30 12 16 1018.7 1018.7 0.0
28/11:30am 15.8 11.6 12.3 80 1.9 NNW 26 33 14 18 1019.2 1019.2 0.0
28/11:21am 15.6 11.4 12.5 82 1.7 NNW 26 37 14 20 1019.3 1019.3 0.0
28/11:02am 15.9 11.6 12.2 78 2.0 NNW 26 33 14 18 1019.5 1019.5 0.0
28/11:00am 16.0 12.2 12.3 79 2.0 NNW 24 33 13 18 1019.5 1019.5 0.0
28/10:37am 15.7 13.7 12.6 82 1.7 NNE 15 19 8 10 1019.4 1019.4 0.0
28/10:30am 15.7 13.7 12.8 83 1.6 NNE 15 19 8 10 1019.4 1019.4 0.0
28/10:00am 13.7 11.2 12.4 92 0.7 NNE 17 22 9 12 1019.3 1019.3 0.0
28/09:30am 13.2 10.1 11.7 91 0.8 NNE 19 26 10 14 1019.3 1019.3 0.0
28/09:00am 13.2 10.4 11.3 88 1.0 NNE 17 22 9 12 1019.3 1019.3 0.0
28/08:30am 12.9 10.1 10.0 82 1.5 NE 15 17 8 9 1019.3 1019.3 0.0
28/08:00am 11.7 8.9 8.7 82 1.5 NE 13 19 7 10 1019.0 1019.0 0.0
28/07:40am 10.6 8.0 7.9 83 1.3 NE 11 13 6 7 1019.0 1019.0 0.0
28/07:30am 10.2 7.9 7.5 83 1.3 NE 9 11 5 6 1018.8 1018.8 0.0
28/07:00am 10.3 7.3 7.6 83 1.3 NE 13 17 7 9 1018.8 1018.8 0.0
28/06:30am 10.5 7.1 7.6 82 1.4 NNE 15 20 8 11 1018.4 1018.4 0.0
28/06:00am 10.5 8.3 7.8 83 1.3 NNE 9 11 5 6 1018.2 1018.2 0.0
28/05:30am 10.9 7.5 7.8 81 1.5 NNE 15 17 8 9 1017.7 1017.7 0.0
28/05:00am 11.4 8.5 8.1 80 1.6 NE 13 13 7 7 1017.7 1017.7 0.0
28/04:30am 11.9 9.5 8.5 80 1.7 NNE 11 11 6 6 1017.9 1017.9 0.0
28/04:00am 11.9 9.6 8.9 82 1.5 NE 11 13 6 7 1017.7 1017.7 0.0
28/03:30am 12.5 8.9 8.5 76 2.0 NNE 17 20 9 11 1017.8 1017.8 0.0
28/03:00am 12.1 9.4 9.1 82 1.5 NNE 13 15 7 8 1017.6 1017.6 0.0
28/02:30am 12.3 8.8 8.9 80 1.7 NE 17 19 9 10 1017.6 1017.6 0.0
28/02:00am 11.4 9.5 9.2 86 1.1 NE 9 11 5 6 1018.1 1018.1 0.0
28/01:30am 11.0 8.8 9.2 89 0.9 NNE 11 11 6 6 1018.4 1018.4 0.0
28/01:00am 10.9 9.1 9.3 90 0.8 NE 9 11 5 6 1018.1 1018.1 0.0
28/12:30am 11.4 9.2 9.4 87 1.0 NE 11 13 6 7 1018.0 1018.0 0.0
28/12:00am 11.7 8.8 9.7 87 1.0 NE 15 17 8 9 1018.1 1018.1 0.0
 
Date/Time
CST
Temp
°C
App
Temp
°C
Dew
Point
Rel
Hum
%
Delta-T
°C
Wind Press
QNH
hPa
Press
MSL
hPa
Rain
since 9 am
mm
Dir
 
Spd
km/h
Gust
km/h
Spd
kts
Gust
kts
27/11:30pm 12.6 11.0 10.1 85 1.3 NNE 9 11 5 6 1018.6 1018.6 0.0
27/11:00pm 12.5 10.9 10.2 86 1.2 NE 9 11 5 6 1018.6 1018.6 0.0
27/10:30pm 12.5 10.9 10.2 86 1.2 NE 9 11 5 6 1018.7 1018.7 0.0
27/10:00pm 13.3 11.4 10.4 82 1.5 NE 11 13 6 7 1018.9 1018.9 0.0
27/09:30pm 13.7 11.5 10.8 83 1.5 NE 13 13 7 7 1019.0 1019.0 0.0
27/09:00pm 13.7 11.6 11.0 84 1.4 NE 13 15 7 8 1019.1 1019.1 0.0
27/08:30pm 14.0 12.7 11.4 84 1.4 NE 9 11 5 6 1019.0 1019.0 0.0
27/08:00pm 14.1 12.8 11.1 82 1.6 NE 9 11 5 6 1019.0 1019.0 0.0
27/07:30pm 14.7 14.3 11.1 79 1.9 N 4 11 2 6 1019.0 1019.0 0.0
27/07:00pm 15.7 14.0 11.2 74 2.4 NE 11 13 6 7 1018.8 1018.8 0.0
27/06:30pm 16.2 14.2 11.4 73 2.6 NNE 13 15 7 8 1018.7 1018.7 0.0

Other Formats:

Comma delimited format used in spreadsheet applications
http://www.bom.gov.au/fwo/IDS60801/IDS60801.94672.axf

JavaScript Object Notation format (JSON) in row-major order
http://www.bom.gov.au/fwo/IDS60801/IDS60801.94672.json